Accueil
METAR-TAF:

METAR-TAF

Aéroports :

Sumter, Caroline du Sud, États-Unis

latitude: 33-59-42N, longitude: 080-21-41W, altitude: 55 m

Observation

Le bulletin a été fait il y a 26 minutes, à 21:15 UTC
Vent 4 kt de nord/nord-ouest
Température 17°C
Humidité 39%
Pression 1021 hPa
Visibilité: 16.1 km
Ciel clair

METAR: KSMS 202115Z AUTO 33004KT 10SM CLR 17/03 A3015 RMK AO2

Heure: 16:41 (21:41 UTC)


TAF: absent

Observations et prévisions météorologiques de plus de 4000 aéroports (messages METAR et TAF).

Les stations disponibles sont représentées par des disques jaunes et rouges sur la carte.

Passer la souris dessus pour voir le nom de la station.

Cliquer dessus pour voir les observations et prévisions météorologiques.

Pour changer de carte: cliquez sur les boutons verts avec une croix noire pour zoomer, sur le bouton vert avec un tiret pour effectuer un zoom arrière, ou sur les flèches vertes pour les cartes adjacentes.


METAR-TAF: